createdAt,value
2023-04-19T00:06:34.434Z,957.49
2023-04-19T00:21:36.172Z,957.61
2023-04-19T00:36:37.898Z,957.8
2023-04-19T00:51:39.638Z,958
2023-04-19T01:06:41.327Z,958.17
2023-04-19T01:21:43.037Z,958.42
2023-04-19T01:36:44.782Z,958.78
2023-04-19T01:51:46.535Z,958.78
2023-04-19T02:06:48.247Z,958.96
2023-04-19T02:21:49.980Z,959.45
2023-04-19T02:36:51.670Z,959.7
2023-04-19T02:51:53.412Z,959.9
2023-04-19T03:06:55.234Z,960.28
2023-04-19T03:21:57.070Z,960.55
2023-04-19T03:36:58.829Z,960.9
2023-04-19T03:52:00.577Z,961.2
2023-04-19T04:07:02.461Z,961.48
2023-04-19T04:22:04.195Z,961.75
2023-04-19T04:37:05.946Z,961.89
2023-04-19T04:52:07.733Z,962.05
2023-04-19T05:07:09.453Z,962.15
2023-04-19T05:22:11.207Z,962.2
2023-04-19T05:37:13.049Z,962.09
2023-04-19T05:52:14.833Z,961.93
2023-04-19T06:07:30.877Z,961.92
2023-04-19T06:22:35.754Z,961.98
2023-04-19T06:37:37.501Z,962.11
2023-04-19T06:52:39.336Z,962.34
2023-04-19T07:07:41.071Z,962.55
2023-04-19T07:22:42.859Z,962.62
2023-04-19T07:37:44.618Z,962.64
2023-04-19T07:52:46.363Z,962.73
2023-04-19T08:07:48.127Z,962.95
2023-04-19T08:22:49.926Z,963.07
2023-04-19T08:37:51.697Z,963.21
2023-04-19T08:52:58.675Z,963.2
2023-04-19T09:08:04.681Z,963.23
2023-04-19T09:23:06.381Z,963.35
2023-04-19T09:38:08.163Z,963.44
2023-04-19T09:53:09.891Z,963.56
2023-04-19T10:08:11.693Z,963.75
2023-04-19T10:23:13.598Z,963.87
2023-04-19T10:38:15.433Z,964.03
2023-04-19T10:53:17.157Z,964.34
2023-04-19T11:08:18.959Z,964.52
2023-04-19T11:23:20.765Z,964.7
2023-04-19T11:38:22.563Z,964.72
2023-04-19T11:53:24.370Z,964.73
2023-04-19T12:08:26.110Z,964.84
2023-04-19T12:23:27.880Z,965.01
2023-04-19T12:38:29.587Z,965.01
2023-04-19T12:53:31.324Z,965.11
2023-04-19T13:08:41.475Z,965.26
2023-04-19T13:23:46.254Z,965.36
2023-04-19T13:38:47.980Z,965.5
2023-04-19T13:53:49.741Z,965.69
2023-04-19T14:08:51.527Z,965.79
2023-04-19T14:23:53.310Z,965.93
2023-04-19T14:38:55.020Z,966
2023-04-19T14:53:56.841Z,966.02
2023-04-19T15:08:58.580Z,966.12
2023-04-19T15:24:00.325Z,966.13
2023-04-19T15:39:02.167Z,966.19
2023-04-19T15:54:03.961Z,966.19
2023-04-19T16:09:05.683Z,966.21
2023-04-19T16:24:07.379Z,966.17
2023-04-19T16:39:09.076Z,966.11
2023-04-19T16:54:10.847Z,966.03
2023-04-19T17:09:12.597Z,965.99
2023-04-19T17:24:14.335Z,966.01
2023-04-19T17:39:16.449Z,966.06
2023-04-19T17:54:19.584Z,965.99
2023-04-19T18:09:22.446Z,965.89
2023-04-19T18:24:24.299Z,965.74
2023-04-19T18:39:26.070Z,965.62
2023-04-19T18:54:27.816Z,965.46
2023-04-19T19:09:29.552Z,965.31
2023-04-19T19:24:31.333Z,965.27
2023-04-19T19:39:33.086Z,965.2
2023-04-19T19:54:34.900Z,965.14
2023-04-19T20:09:36.741Z,965.12
2023-04-19T20:24:38.567Z,965.06
2023-04-19T20:39:40.326Z,964.99
2023-04-19T20:54:42.046Z,965.08
2023-04-19T21:09:43.862Z,965.1
2023-04-19T21:24:45.595Z,965.13
2023-04-19T21:39:47.373Z,965.08
2023-04-19T21:54:49.172Z,965.04
2023-04-19T22:09:50.942Z,964.92
2023-04-19T22:24:57.855Z,964.84
2023-04-19T22:39:59.994Z,964.82
2023-04-19T22:55:02.617Z,964.75
2023-04-19T23:10:04.327Z,964.81
2023-04-19T23:25:06.060Z,964.84
2023-04-19T23:40:07.870Z,965.04
2023-04-19T23:55:09.607Z,965.14
